EGPF/GLA METAR and TAF weather

Enter ICAO airport designator
Station Type Date Time Source
EGPF METAR 2018/07/21 11:20 UTC NOAA

EGPF 211120Z AUTO 28004KT 220V330 9999 BKN018 OVC025 18/13 Q1014


Station Type Date Time Source
EGPF Decoded METAR 2018/07/21 11:20 UTC NOAA

Glasgow Airport, United Kingdom (EGPF) 55-52N 004-26W 0M
Jul 21, 2018 - 07:20 AM EDT / 2018.07.21 1120 UTC
Wind: from the W (280 degrees) at 5 MPH (4 KT) (direction variable):0
Visibility: greater than 7 mile(s):0
Sky conditions: overcast
Temperature: 64 F (18 C)
Dew Point: 55 F (13 C)
Relative Humidity: 72%
Pressure (altimeter): 29.94 in. Hg (1014 hPa)
ob: EGPF 211120Z AUTO 28004KT 220V330 9999 BKN018 OVC025 18/13 Q1014
cycle: 11

Station Type Date Time Source
EGPF TAF 2018/07/21 12:15 UTC NOAA

TAF EGPF 211054Z 2112/2212 25007KT 9999 SCT025
BECMG 2123/2202 BKN008
TEMPO 2200/2212 3000 -RADZ BKN004


Example: see airport list